createdAt,value
2023-02-14T00:00:04.956Z,25.52
2023-02-14T00:02:06.903Z,23.30
2023-02-14T00:04:11.921Z,20.90
2023-02-14T00:06:14.386Z,20.30
2023-02-14T00:08:17.306Z,18.92
2023-02-14T00:10:19.189Z,20.08
2023-02-14T00:12:20.925Z,19.55
2023-02-14T00:14:24.024Z,17.63
2023-02-14T00:16:25.876Z,19.75
2023-02-14T00:18:28.792Z,18.17
2023-02-14T00:20:31.612Z,16.90
2023-02-14T00:22:33.234Z,18.45
2023-02-14T00:24:37.233Z,17.40
2023-02-14T00:26:39.280Z,17.20
2023-02-14T00:28:40.946Z,18.83
2023-02-14T00:30:43.977Z,17.65
2023-02-14T00:32:45.595Z,20.05
2023-02-14T00:34:47.313Z,17.67
2023-02-14T00:36:49.173Z,18.35
2023-02-14T00:38:50.817Z,18.17
2023-02-14T00:40:52.484Z,16.20
2023-02-14T00:42:56.918Z,16.85
2023-02-14T00:44:58.565Z,16.25
2023-02-14T00:47:01.633Z,16.90
2023-02-14T00:49:04.125Z,16.70
2023-02-14T00:51:06.027Z,16.30
2023-02-14T00:53:07.729Z,16.30
2023-02-14T00:55:10.494Z,18.33
2023-02-14T00:57:12.119Z,15.93
2023-02-14T00:59:13.905Z,16.60
2023-02-14T01:01:16.994Z,17.75
2023-02-14T01:03:20.265Z,17.38
2023-02-14T01:05:21.996Z,16.67
2023-02-14T01:07:23.707Z,16.80
2023-02-14T01:09:25.506Z,18.60
2023-02-14T01:11:29.289Z,16.88
2023-02-14T01:13:31.690Z,16.95
2023-02-14T01:15:34.083Z,15.52
2023-02-14T01:17:35.693Z,16.92
2023-02-14T01:19:38.695Z,13.80
2023-02-14T01:21:41.638Z,14.88
2023-02-14T01:23:44.519Z,15.15
2023-02-14T01:25:46.268Z,15.35
2023-02-14T01:27:47.858Z,15.90
2023-02-14T01:29:49.611Z,17.15
2023-02-14T01:31:51.630Z,16.80
2023-02-14T01:33:54.379Z,16.95
2023-02-14T01:35:57.492Z,17.25
2023-02-14T01:37:59.427Z,15.05
2023-02-14T01:40:07.145Z,17.50
2023-02-14T01:42:10.718Z,17.60
2023-02-14T01:44:45.764Z,17.27
2023-02-14T01:46:47.544Z,17.67
2023-02-14T01:48:50.772Z,17.92
2023-02-14T01:50:53.943Z,17.30
2023-02-14T01:53:02.440Z,19.17
2023-02-14T01:55:12.155Z,15.05
2023-02-14T01:57:17.398Z,18.60
2023-02-14T01:59:25.253Z,18.23
2023-02-14T02:01:28.105Z,18.35
2023-02-14T02:03:34.100Z,18.15
2023-02-14T02:05:37.844Z,18.55
2023-02-14T02:07:39.962Z,17.95
2023-02-14T02:09:49.204Z,16.05
2023-02-14T02:11:51.264Z,19.48
2023-02-14T02:13:52.911Z,17.55
2023-02-14T02:16:11.148Z,17.88
2023-02-14T02:18:23.955Z,18.70
2023-02-14T02:20:59.248Z,17.23
2023-02-14T02:23:38.568Z,17.30
2023-02-14T02:26:07.102Z,15.80
2023-02-14T02:28:32.133Z,18.17
2023-02-14T02:31:03.925Z,16.05
2023-02-14T02:33:53.296Z,17.20
2023-02-14T02:36:13.103Z,17.15
2023-02-14T02:38:27.896Z,16.23
2023-02-14T02:40:44.654Z,17.83
2023-02-14T02:42:58.317Z,15.80
2023-02-14T02:45:10.696Z,17.15
2023-02-14T02:47:21.389Z,18.05
2023-02-14T02:49:37.039Z,16.13
2023-02-14T02:51:47.957Z,16.05
2023-02-14T02:53:52.410Z,17.42
2023-02-14T02:55:57.556Z,17.75
2023-02-14T02:58:00.013Z,17.77
2023-02-14T03:00:04.235Z,19.05
2023-02-14T03:02:12.683Z,17.17
2023-02-14T03:04:16.593Z,17.98
2023-02-14T03:06:18.178Z,17.45
2023-02-14T03:08:21.168Z,17.42
2023-02-14T03:10:24.837Z,20.40
2023-02-14T03:12:47.156Z,18.77
2023-02-14T03:14:56.061Z,17.38
2023-02-14T03:17:04.453Z,18.17
2023-02-14T03:19:40.011Z,17.90
2023-02-14T03:21:48.680Z,17.25
2023-02-14T03:23:56.525Z,16.40
2023-02-14T03:26:09.985Z,17.42
2023-02-14T03:28:17.549Z,17.83
2023-02-14T03:30:30.296Z,17.25
2023-02-14T03:32:38.749Z,17.55
2023-02-14T03:34:51.477Z,16.92
2023-02-14T03:36:58.537Z,16.33
2023-02-14T03:39:08.037Z,15.35
2023-02-14T03:41:14.078Z,16.23
2023-02-14T03:43:21.320Z,15.85
2023-02-14T03:45:30.333Z,17.15
2023-02-14T03:47:36.110Z,15.88
2023-02-14T03:49:43.587Z,15.88
2023-02-14T03:51:49.774Z,16.52
2023-02-14T03:54:04.801Z,17.88
2023-02-14T03:56:13.894Z,15.60
2023-02-14T03:58:21.487Z,16.83
2023-02-14T04:00:23.771Z,19.08
2023-02-14T04:02:31.042Z,18.70
2023-02-14T04:04:37.086Z,19.30
2023-02-14T04:06:39.085Z,19.08
2023-02-14T04:08:40.766Z,18.85
2023-02-14T04:10:43.710Z,17.20
2023-02-14T04:12:46.229Z,19.27
2023-02-14T04:14:55.354Z,25.95
2023-02-14T04:16:57.054Z,20.05
2023-02-14T04:18:58.654Z,17.83
2023-02-14T04:21:00.696Z,19.60
2023-02-14T04:23:04.328Z,18.08
2023-02-14T04:25:07.883Z,17.77
2023-02-14T04:27:11.390Z,18.85
2023-02-14T04:29:13.282Z,20.25
2023-02-14T04:31:18.034Z,21.23
2023-02-14T04:33:19.715Z,19.40
2023-02-14T04:35:21.658Z,20.00
2023-02-14T04:37:24.257Z,17.05
2023-02-14T04:39:26.316Z,18.85
2023-02-14T04:41:27.943Z,19.63
2023-02-14T04:43:31.116Z,19.13
2023-02-14T04:45:34.527Z,19.75
2023-02-14T04:47:36.193Z,18.25
2023-02-14T04:49:37.861Z,16.40
2023-02-14T04:51:41.781Z,17.50
2023-02-14T04:53:44.089Z,17.60
2023-02-14T04:55:45.765Z,17.23
2023-02-14T04:57:47.751Z,18.90
2023-02-14T04:59:50.806Z,17.02
2023-02-14T05:01:53.119Z,17.52
2023-02-14T05:03:54.822Z,18.05
2023-02-14T05:05:56.598Z,17.52
2023-02-14T05:07:58.235Z,18.05
2023-02-14T05:10:01.353Z,18.05
2023-02-14T05:12:11.105Z,18.73
2023-02-14T05:14:12.718Z,17.75
2023-02-14T05:16:15.757Z,16.90
2023-02-14T05:18:17.325Z,18.60
2023-02-14T05:20:19.057Z,17.67
2023-02-14T05:22:20.623Z,17.77
2023-02-14T05:24:22.308Z,18.58
2023-02-14T05:26:23.891Z,18.63
2023-02-14T05:28:25.577Z,18.33
2023-02-14T05:30:27.284Z,22.10
2023-02-14T05:32:30.196Z,22.10
2023-02-14T05:34:31.716Z,22.17
2023-02-14T05:36:33.462Z,21.85
2023-02-14T05:38:35.035Z,21.65
2023-02-14T05:40:36.581Z,22.15
2023-02-14T05:42:38.373Z,20.80
2023-02-14T05:44:39.940Z,22.10
2023-02-14T05:46:41.512Z,21.15
2023-02-14T05:48:44.578Z,20.20
2023-02-14T05:53:01.841Z,18.90
2023-02-14T05:55:04.337Z,19.55
2023-02-14T05:57:05.894Z,20.30
2023-02-14T05:59:07.457Z,18.45
2023-02-14T06:01:09.046Z,19.85
2023-02-14T06:03:10.664Z,27.50
2023-02-14T06:05:13.513Z,29.35
2023-02-14T06:07:15.125Z,25.77
2023-02-14T06:09:16.761Z,25.05
2023-02-14T06:11:18.344Z,24.02
2023-02-14T06:13:19.946Z,24.05
2023-02-14T06:15:22.244Z,23.52
2023-02-14T06:17:23.805Z,21.67
2023-02-14T06:19:25.385Z,21.13
2023-02-14T06:21:28.444Z,21.50
2023-02-14T06:23:30.052Z,22.67
2023-02-14T06:25:31.781Z,21.30
2023-02-14T06:27:33.473Z,20.58
2023-02-14T06:29:35.054Z,20.45
2023-02-14T06:31:36.998Z,18.48
2023-02-14T06:33:38.669Z,18.15
2023-02-14T06:35:40.185Z,20.58
2023-02-14T06:37:43.204Z,19.23
2023-02-14T06:39:44.778Z,20.08
2023-02-14T06:41:46.363Z,18.58
2023-02-14T06:43:48.196Z,19.50
2023-02-14T06:45:49.778Z,19.52
2023-02-14T06:47:51.408Z,19.25
2023-02-14T06:49:52.982Z,19.58
2023-02-14T06:51:54.545Z,20.23
2023-02-14T06:53:57.579Z,22.70
2023-02-14T06:55:59.200Z,21.38
2023-02-14T06:58:00.843Z,20.58
2023-02-14T07:00:03.037Z,19.92
2023-02-14T07:02:04.956Z,18.65
2023-02-14T07:04:06.485Z,18.45
2023-02-14T07:06:08.020Z,18.40
2023-02-14T07:08:09.701Z,19.92
2023-02-14T07:10:13.328Z,20.08
2023-02-14T07:12:14.916Z,20.35
2023-02-14T07:14:16.477Z,21.20
2023-02-14T07:16:18.104Z,21.48
2023-02-14T07:18:19.747Z,20.63
2023-02-14T07:20:21.538Z,21.25
2023-02-14T07:22:23.112Z,20.85
2023-02-14T07:24:24.777Z,22.85
2023-02-14T07:26:27.796Z,22.95
2023-02-14T07:28:32.512Z,21.33
2023-02-14T07:30:34.264Z,21.50
2023-02-14T07:32:37.165Z,21.35
2023-02-14T07:34:38.705Z,23.63
2023-02-14T07:36:40.341Z,20.48
2023-02-14T07:38:42.022Z,22.10
2023-02-14T07:40:43.726Z,22.15
2023-02-14T07:42:52.670Z,21.60
2023-02-14T07:44:54.359Z,22.40
2023-02-14T07:46:56.041Z,23.95
2023-02-14T07:48:57.557Z,21.10
2023-02-14T07:50:59.576Z,21.60
2023-02-14T07:53:01.433Z,23.55
2023-02-14T07:55:03.036Z,22.55
2023-02-14T07:57:05.480Z,25.50
2023-02-14T07:59:08.457Z,29.02
2023-02-14T08:01:09.953Z,45.50
2023-02-14T08:03:11.599Z,34.25
2023-02-14T08:05:16.335Z,25.25
2023-02-14T08:07:18.107Z,26.73
2023-02-14T08:09:20.715Z,43.10
2023-02-14T08:11:22.290Z,26.20
2023-02-14T08:13:23.864Z,24.17
2023-02-14T08:15:27.850Z,26.00
2023-02-14T08:17:29.400Z,24.35
2023-02-14T08:19:30.922Z,25.27
2023-02-14T08:21:32.640Z,27.20
2023-02-14T08:23:35.129Z,35.67
2023-02-14T08:25:36.698Z,45.90
2023-02-14T08:27:38.324Z,28.73
2023-02-14T08:29:39.876Z,23.85
2023-02-14T08:31:42.965Z,29.23
2023-02-14T08:33:44.614Z,29.63
2023-02-14T08:35:46.298Z,29.85
2023-02-14T08:37:48.076Z,24.98
2023-02-14T08:39:50.020Z,26.95
2023-02-14T08:41:51.581Z,25.08
2023-02-14T08:43:53.220Z,25.92
2023-02-14T08:45:55.255Z,24.80
2023-02-14T08:48:02.691Z,26.55
2023-02-14T08:50:05.757Z,32.35
2023-02-14T08:52:07.323Z,26.35
2023-02-14T08:54:08.873Z,57.03
2023-02-14T08:56:11.990Z,28.08
2023-02-14T08:58:13.632Z,28.42
2023-02-14T09:00:15.941Z,25.85
2023-02-14T09:02:17.502Z,25.45
2023-02-14T09:04:20.441Z,26.33
2023-02-14T09:06:22.099Z,28.75
2023-02-14T09:08:23.684Z,27.55
2023-02-14T09:10:25.703Z,26.00
2023-02-14T09:12:27.363Z,24.77
2023-02-14T09:14:31.173Z,24.67
2023-02-14T09:16:33.782Z,22.95
2023-02-14T09:18:37.835Z,21.50
2023-02-14T09:20:40.723Z,23.45
2023-02-14T09:22:42.369Z,24.00
2023-02-14T09:24:44.670Z,23.65
2023-02-14T09:26:46.185Z,26.60
2023-02-14T09:28:48.177Z,25.52
2023-02-14T09:30:49.835Z,26.60
2023-02-14T09:32:52.583Z,23.60
2023-02-14T09:34:54.227Z,23.70
2023-02-14T09:36:59.929Z,24.35
2023-02-14T09:39:01.720Z,22.40
2023-02-14T09:41:05.840Z,26.42
2023-02-14T09:43:11.635Z,24.50
2023-02-14T09:45:16.660Z,23.00
2023-02-14T09:47:23.052Z,21.80
2023-02-14T09:49:31.632Z,22.58
2023-02-14T09:51:33.405Z,21.30
2023-02-14T09:53:43.667Z,22.83
2023-02-14T09:55:53.957Z,22.85
2023-02-14T09:58:04.792Z,23.35
2023-02-14T10:00:17.451Z,24.77
2023-02-14T10:02:33.639Z,23.35
2023-02-14T10:04:40.508Z,24.73
2023-02-14T10:06:50.399Z,22.58
2023-02-14T10:09:02.845Z,26.80
2023-02-14T10:11:15.375Z,24.05
2023-02-14T10:13:22.469Z,23.90
2023-02-14T10:15:27.478Z,23.50
2023-02-14T10:17:38.260Z,23.45
2023-02-14T10:19:43.694Z,23.73
2023-02-14T10:21:52.170Z,27.80
2023-02-14T10:24:00.210Z,27.05
2023-02-14T10:26:04.154Z,28.10
2023-02-14T10:28:11.292Z,25.95
2023-02-14T10:30:16.871Z,26.40
2023-02-14T10:32:25.204Z,25.95
2023-02-14T10:34:35.076Z,27.70
2023-02-14T10:36:51.221Z,27.70
2023-02-14T10:39:01.405Z,29.10
2023-02-14T10:41:18.974Z,26.15
2023-02-14T10:43:27.903Z,26.05
2023-02-14T10:45:38.954Z,27.55
2023-02-14T10:47:47.302Z,27.85
2023-02-14T10:49:57.896Z,28.00
2023-02-14T10:52:08.301Z,28.80
2023-02-14T10:54:19.205Z,28.55
2023-02-14T10:56:26.110Z,28.80
2023-02-14T10:58:32.186Z,28.52
2023-02-14T11:00:37.821Z,27.35
2023-02-14T11:02:43.304Z,29.13
2023-02-14T11:04:46.364Z,27.50
2023-02-14T11:06:48.147Z,28.58
2023-02-14T11:08:59.152Z,30.00
2023-02-14T11:11:10.944Z,28.45
2023-02-14T11:13:34.916Z,28.27
2023-02-14T11:15:39.740Z,29.50
2023-02-14T11:17:41.849Z,26.65
2023-02-14T11:19:57.143Z,29.25
2023-02-14T11:22:00.066Z,30.48
2023-02-14T11:24:16.730Z,29.08
2023-02-14T11:26:29.902Z,29.58
2023-02-14T11:28:32.186Z,29.55
2023-02-14T11:30:36.660Z,29.02
2023-02-14T11:32:38.848Z,26.08
2023-02-14T11:34:44.418Z,28.27
2023-02-14T11:36:46.009Z,29.35
2023-02-14T11:38:55.917Z,30.55
2023-02-14T11:40:59.433Z,30.15
2023-02-14T11:43:19.187Z,29.40
2023-02-14T11:45:33.339Z,30.08
2023-02-14T11:47:36.285Z,28.90
2023-02-14T11:49:37.965Z,28.25
2023-02-14T11:51:43.930Z,27.92
2023-02-14T11:53:48.379Z,29.13
2023-02-14T11:55:53.851Z,28.92
2023-02-14T11:57:56.428Z,30.27
2023-02-14T12:00:01.845Z,27.98
2023-02-14T12:02:24.444Z,29.20
2023-02-14T12:04:38.115Z,29.67
2023-02-14T12:06:46.498Z,31.23
2023-02-14T12:08:48.291Z,31.63
2023-02-14T12:11:01.966Z,32.97
2023-02-14T12:13:22.998Z,32.15
2023-02-14T12:15:32.355Z,31.83
2023-02-14T12:17:37.350Z,30.00
2023-02-14T12:19:48.957Z,30.67
2023-02-14T12:21:57.911Z,31.60
2023-02-14T12:24:05.932Z,32.53
2023-02-14T12:26:15.280Z,31.05
2023-02-14T12:28:24.814Z,30.75
2023-02-14T12:30:33.157Z,33.05
2023-02-14T12:32:35.498Z,31.02
2023-02-14T12:34:37.386Z,35.65
2023-02-14T12:36:51.564Z,31.50
2023-02-14T12:39:02.458Z,31.13
2023-02-14T12:41:19.494Z,31.48
2023-02-14T12:43:41.122Z,31.23
2023-02-14T12:46:09.614Z,28.98
2023-02-14T12:48:20.420Z,33.47
2023-02-14T12:50:35.149Z,30.25
2023-02-14T12:53:01.185Z,33.38
2023-02-14T12:55:25.786Z,38.10
2023-02-14T12:57:39.340Z,30.08
2023-02-14T12:59:52.063Z,30.27
2023-02-14T13:02:36.985Z,31.17
2023-02-14T13:04:59.503Z,32.55
2023-02-14T13:07:07.826Z,30.10
2023-02-14T13:09:27.665Z,30.33
2023-02-14T13:11:39.588Z,31.52
2023-02-14T13:13:54.288Z,31.17
2023-02-14T13:16:05.012Z,32.80
2023-02-14T13:18:15.008Z,30.67
2023-02-14T13:20:36.800Z,33.55
2023-02-14T13:22:40.567Z,31.00
2023-02-14T13:24:44.532Z,31.88
2023-02-14T13:26:49.842Z,34.60
2023-02-14T13:28:56.083Z,33.35
2023-02-14T13:31:00.038Z,33.72
2023-02-14T13:33:27.508Z,35.50
2023-02-14T13:35:30.316Z,33.78
2023-02-14T13:37:32.887Z,33.03
2023-02-14T13:39:38.656Z,37.38
2023-02-14T13:41:41.250Z,35.15
2023-02-14T13:43:52.043Z,32.95
2023-02-14T13:45:54.682Z,33.95
2023-02-14T13:48:03.376Z,33.92
2023-02-14T13:50:21.511Z,33.50
2023-02-14T13:52:42.948Z,33.75
2023-02-14T13:54:47.823Z,32.90
2023-02-14T13:56:49.715Z,37.28
2023-02-14T13:58:54.018Z,33.55
2023-02-14T14:00:56.571Z,33.00
2023-02-14T14:02:58.314Z,33.42
2023-02-14T14:05:00.000Z,35.72
2023-02-14T14:07:23.984Z,32.47
2023-02-14T14:09:53.318Z,30.30
2023-02-14T14:11:54.956Z,34.67
2023-02-14T14:14:01.807Z,34.85
2023-02-14T14:16:28.549Z,33.97
2023-02-14T14:18:38.141Z,37.28
2023-02-14T14:20:44.416Z,32.40
2023-02-14T14:22:49.298Z,32.40
2023-02-14T14:25:02.291Z,32.70
2023-02-14T14:27:07.221Z,32.70
2023-02-14T14:29:18.137Z,31.15
2023-02-14T14:31:20.328Z,34.88
2023-02-14T14:33:28.687Z,36.25
2023-02-14T14:35:30.211Z,32.80
2023-02-14T14:37:34.078Z,33.83
2023-02-14T14:39:37.208Z,36.35
2023-02-14T14:41:40.401Z,32.92
2023-02-14T14:43:42.372Z,36.30
2023-02-14T14:45:46.949Z,33.35
2023-02-14T14:47:52.907Z,40.65
2023-02-14T14:50:00.274Z,34.28
2023-02-14T14:52:02.035Z,35.00
2023-02-14T14:54:13.145Z,32.42
2023-02-14T14:56:21.924Z,33.75
2023-02-14T14:58:33.237Z,38.33
2023-02-14T15:00:37.147Z,39.42
2023-02-14T15:02:38.908Z,45.38
2023-02-14T15:04:40.637Z,37.75
2023-02-14T15:06:42.452Z,38.90
2023-02-14T15:08:44.550Z,37.22
2023-02-14T15:10:50.564Z,38.40
2023-02-14T15:12:57.237Z,35.70
2023-02-14T15:14:58.878Z,34.78
2023-02-14T15:17:03.313Z,36.17
2023-02-14T15:19:09.082Z,38.08
2023-02-14T15:21:10.828Z,37.97
2023-02-14T15:23:18.426Z,35.33
2023-02-14T15:25:22.522Z,36.78
2023-02-14T15:27:26.319Z,35.63
2023-02-14T15:29:32.104Z,35.35
2023-02-14T15:31:37.030Z,35.85
2023-02-14T15:33:39.083Z,35.65
2023-02-14T15:35:41.980Z,36.50
2023-02-14T15:37:44.435Z,36.80
2023-02-14T15:39:49.522Z,37.03
2023-02-14T15:41:53.680Z,38.72
2023-02-14T15:43:56.541Z,38.95
2023-02-14T15:46:13.528Z,43.58
2023-02-14T15:48:18.665Z,39.13
2023-02-14T15:50:23.452Z,43.55
2023-02-14T15:52:25.377Z,42.40
2023-02-14T15:54:36.698Z,41.38
2023-02-14T15:56:44.279Z,39.38
2023-02-14T15:58:46.617Z,41.67
2023-02-14T16:00:50.082Z,56.35
2023-02-14T16:02:56.403Z,53.85
2023-02-14T16:05:04.678Z,65.30
2023-02-14T16:07:24.764Z,52.92
2023-02-14T16:09:28.628Z,45.88
2023-02-14T16:11:32.137Z,42.92
2023-02-14T16:13:38.440Z,42.55
2023-02-14T16:15:55.754Z,43.60
2023-02-14T16:17:59.844Z,42.40
2023-02-14T16:20:20.556Z,42.88
2023-02-14T16:22:26.032Z,43.33
2023-02-14T16:24:27.674Z,45.30
2023-02-14T16:26:30.850Z,42.58
2023-02-14T16:28:33.382Z,44.50
2023-02-14T16:30:35.400Z,40.72
2023-02-14T16:32:37.110Z,38.90
2023-02-14T16:34:40.581Z,44.13
2023-02-14T16:36:43.426Z,43.47
2023-02-14T16:38:46.134Z,43.67
2023-02-14T16:40:49.808Z,43.90
2023-02-14T16:42:51.415Z,42.47
2023-02-14T16:44:53.435Z,37.97
2023-02-14T16:46:55.010Z,39.05
2023-02-14T16:48:56.799Z,38.40
2023-02-14T16:51:00.155Z,40.83
2023-02-14T16:53:02.113Z,45.28
2023-02-14T16:55:04.960Z,38.90
2023-02-14T16:57:07.333Z,60.22
2023-02-14T16:59:09.103Z,56.78
2023-02-14T17:01:10.857Z,36.72
2023-02-14T17:03:12.632Z,46.85
2023-02-14T17:05:14.397Z,38.88
2023-02-14T17:07:17.392Z,34.78
2023-02-14T17:09:22.799Z,32.38
2023-02-14T17:11:26.842Z,32.25
2023-02-14T17:13:31.528Z,33.70
2023-02-14T17:15:34.071Z,31.27
2023-02-14T17:17:37.303Z,34.30
2023-02-14T17:19:39.289Z,33.65
2023-02-14T17:21:41.297Z,35.72
2023-02-14T17:23:44.315Z,32.90
2023-02-14T17:28:01.465Z,33.75
2023-02-14T17:30:03.634Z,34.17
2023-02-14T17:32:05.609Z,35.58
2023-02-14T17:34:07.417Z,32.55
2023-02-14T17:36:12.021Z,33.80
2023-02-14T17:38:13.748Z,32.50
2023-02-14T17:40:18.466Z,31.42
2023-02-14T17:42:20.068Z,38.60
2023-02-14T17:44:21.653Z,37.38
2023-02-14T17:46:23.457Z,37.45
2023-02-14T17:48:25.080Z,37.05
2023-02-14T17:50:26.699Z,33.08
2023-02-14T17:52:28.383Z,37.70
2023-02-14T17:54:29.992Z,35.53
2023-02-14T17:56:32.952Z,34.45
2023-02-14T17:58:35.004Z,32.13
2023-02-14T18:00:36.576Z,31.75
2023-02-14T18:02:41.104Z,32.10
2023-02-14T18:04:43.114Z,40.58
2023-02-14T18:06:44.986Z,33.97
2023-02-14T18:08:48.362Z,45.90
2023-02-14T18:10:50.317Z,53.95
2023-02-14T18:12:53.279Z,39.83
2023-02-14T18:14:54.951Z,39.30
2023-02-14T18:16:56.642Z,36.38
2023-02-14T18:19:01.817Z,48.15
2023-02-14T18:21:05.525Z,36.65
2023-02-14T18:23:07.078Z,38.00
2023-02-14T18:25:09.098Z,37.40
2023-02-14T18:27:10.675Z,38.42
2023-02-14T18:29:14.051Z,36.80
2023-02-14T18:31:17.554Z,35.88
2023-02-14T18:33:19.929Z,35.17
2023-02-14T18:35:21.472Z,36.05
2023-02-14T18:37:22.986Z,36.60
2023-02-14T18:39:24.636Z,39.45
2023-02-14T18:41:26.931Z,37.40
2023-02-14T18:43:28.602Z,36.95
2023-02-14T18:45:35.512Z,34.20
2023-02-14T18:47:37.119Z,37.85
2023-02-14T18:49:38.838Z,30.50
2023-02-14T18:51:41.761Z,35.17
2023-02-14T18:53:44.760Z,34.10
2023-02-14T18:55:46.392Z,31.75
2023-02-14T18:57:48.049Z,34.20
2023-02-14T18:59:49.854Z,31.25
2023-02-14T19:01:52.988Z,28.92
2023-02-14T19:03:55.549Z,30.13
2023-02-14T19:05:59.305Z,35.30
2023-02-14T19:08:01.278Z,30.25
2023-02-14T19:10:03.544Z,34.92
2023-02-14T19:12:07.255Z,28.98
2023-02-14T19:14:10.324Z,30.98
2023-02-14T19:16:14.032Z,29.35
2023-02-14T19:18:17.934Z,30.73
2023-02-14T19:20:19.769Z,30.70
2023-02-14T19:22:21.600Z,29.85
2023-02-14T19:24:23.296Z,29.90
2023-02-14T19:26:28.178Z,32.22
2023-02-14T19:28:30.111Z,28.40
2023-02-14T19:30:32.704Z,29.42
2023-02-14T19:32:34.333Z,30.95
2023-02-14T19:34:37.630Z,30.30
2023-02-14T19:36:40.281Z,27.98
2023-02-14T19:38:46.599Z,31.95
2023-02-14T19:40:50.502Z,28.25
2023-02-14T19:42:52.459Z,31.75
2023-02-14T19:44:54.147Z,32.42
2023-02-14T19:46:58.148Z,34.72
2023-02-14T19:49:00.992Z,37.85
2023-02-14T19:51:05.607Z,37.55
2023-02-14T19:53:07.126Z,37.30
2023-02-14T19:55:19.972Z,33.70
2023-02-14T19:57:21.907Z,35.38
2023-02-14T19:59:23.608Z,34.92
2023-02-14T20:01:29.236Z,35.03
2023-02-14T20:03:31.011Z,34.92
2023-02-14T20:05:32.593Z,31.88
2023-02-14T20:07:35.534Z,31.00
2023-02-14T20:09:37.167Z,34.35
2023-02-14T20:11:40.920Z,50.20
2023-02-14T20:13:42.559Z,40.92
2023-02-14T20:15:47.116Z,35.72
2023-02-14T20:17:48.674Z,32.13
2023-02-14T20:19:50.272Z,33.65
2023-02-14T20:21:51.992Z,35.83
2023-02-14T20:23:56.941Z,32.03
2023-02-14T20:25:58.895Z,31.80
2023-02-14T20:28:00.478Z,32.00
2023-02-14T20:30:02.070Z,31.58
2023-02-14T20:32:04.050Z,30.48
2023-02-14T20:34:05.766Z,34.20
2023-02-14T20:36:08.640Z,29.65
2023-02-14T20:38:10.292Z,30.63
2023-02-14T20:40:13.551Z,30.45
2023-02-14T20:42:15.182Z,27.70
2023-02-14T20:44:18.997Z,30.40
2023-02-14T20:46:21.587Z,28.75
2023-02-14T20:48:23.488Z,27.88
2023-02-14T20:50:25.114Z,29.17
2023-02-14T20:52:26.768Z,30.15
2023-02-14T20:54:29.478Z,28.88
2023-02-14T20:56:32.451Z,29.63
2023-02-14T20:58:35.416Z,28.45
2023-02-14T21:00:37.111Z,28.23
2023-02-14T21:02:38.770Z,28.63
2023-02-14T21:04:40.703Z,31.95
2023-02-14T21:06:42.295Z,29.40
2023-02-14T21:08:45.081Z,31.45
2023-02-14T21:10:46.742Z,29.98
2023-02-14T21:12:49.832Z,29.75
2023-02-14T21:14:51.505Z,29.05
2023-02-14T21:16:53.106Z,31.50
2023-02-14T21:18:56.831Z,30.52
2023-02-14T21:21:03.781Z,34.30
2023-02-14T21:23:05.353Z,34.92
2023-02-14T21:25:07.460Z,36.45
2023-02-14T21:27:09.049Z,34.90
2023-02-14T21:29:12.106Z,34.90
2023-02-14T21:31:15.678Z,46.10
2023-02-14T21:33:17.339Z,30.25
2023-02-14T21:35:18.852Z,30.88
2023-02-14T21:37:20.477Z,30.88
2023-02-14T21:39:22.431Z,31.92
2023-02-14T21:41:25.957Z,33.55
2023-02-14T21:43:27.579Z,32.22
2023-02-14T21:45:30.775Z,30.55
2023-02-14T21:47:36.574Z,30.80
2023-02-14T21:49:38.250Z,28.85
2023-02-14T21:51:40.630Z,30.02
2023-02-14T21:53:42.709Z,29.38
2023-02-14T21:55:44.436Z,28.15
2023-02-14T21:57:46.100Z,33.20
2023-02-14T21:59:47.727Z,39.78
2023-02-14T22:01:50.665Z,37.30
2023-02-14T22:03:53.046Z,37.75
2023-02-14T22:06:01.236Z,55.08
2023-02-14T22:08:03.016Z,33.20
2023-02-14T22:10:05.788Z,32.17
2023-02-14T22:12:07.577Z,29.95
2023-02-14T22:14:09.153Z,32.85
2023-02-14T22:16:14.192Z,34.38
2023-02-14T22:18:17.670Z,36.38
2023-02-14T22:20:19.641Z,29.70
2023-02-14T22:22:21.255Z,33.47
2023-02-14T22:24:22.806Z,32.33
2023-02-14T22:26:26.682Z,32.72
2023-02-14T22:28:28.312Z,34.72
2023-02-14T22:30:29.806Z,32.75
2023-02-14T22:32:31.405Z,32.95
2023-02-14T22:34:34.649Z,34.17
2023-02-14T22:36:36.366Z,30.85
2023-02-14T22:38:38.837Z,31.27
2023-02-14T22:40:40.391Z,32.78
2023-02-14T22:42:42.007Z,32.67
2023-02-14T22:44:43.615Z,32.35
2023-02-14T22:46:45.197Z,28.52
2023-02-14T22:48:47.644Z,32.60
2023-02-14T22:50:50.501Z,29.67
2023-02-14T22:52:52.063Z,31.15
2023-02-14T22:54:53.615Z,30.40
2023-02-14T22:56:55.194Z,28.83
2023-02-14T22:58:58.839Z,27.40
2023-02-14T23:01:00.476Z,26.50
2023-02-14T23:03:02.080Z,27.83
2023-02-14T23:05:03.833Z,29.25
2023-02-14T23:07:06.886Z,29.13
2023-02-14T23:09:10.560Z,26.25
2023-02-14T23:11:14.609Z,27.35
2023-02-14T23:13:16.146Z,27.98
2023-02-14T23:15:17.884Z,30.85
2023-02-14T23:17:19.479Z,28.75
2023-02-14T23:19:23.832Z,26.35
2023-02-14T23:21:25.408Z,27.58
2023-02-14T23:23:34.588Z,27.08
2023-02-14T23:25:36.317Z,27.35
2023-02-14T23:27:39.364Z,28.00
2023-02-14T23:29:40.988Z,28.13
2023-02-14T23:31:42.755Z,28.75
2023-02-14T23:33:44.388Z,26.90
2023-02-14T23:35:45.996Z,24.90
2023-02-14T23:37:47.548Z,35.47
2023-02-14T23:39:50.623Z,31.60
2023-02-14T23:41:52.624Z,35.75
2023-02-14T23:43:54.185Z,32.72
2023-02-14T23:45:55.789Z,30.13
2023-02-14T23:48:01.737Z,30.33
2023-02-14T23:50:03.306Z,28.77
2023-02-14T23:52:06.482Z,26.80
2023-02-14T23:54:08.594Z,26.95
2023-02-14T23:56:11.497Z,27.15
2023-02-14T23:58:13.008Z,27.42
